Skip Navigation Links
NOAA logo - Click to go to the NOAA homepage
NOAA's National Weather Service
Alaska Aviation Weather Unit
  NWS logo - Click to go to the NWS homepage
Left Navbar Graphic     09 AKDT = 17 GMT

   
NOAA is celebrating 200 years of science, service, and stewardship. Visit the NOAA 200th celebration Web site to learn more.
USA.gov is the U.S. Government's official Web portal to all Federal, state and local government Web resources and services.
Facebook
NWS on Facebook

Important Change Regarding the AAWU Web Presence

 

Over the last several months, the AAWU has been working to navigate its webpages to a nationally supported server. Security, as well as other needs, have necessitated the change.  In the process, we have made an effort to enhance the functionality of our website, as well as some of our products. As of June 20, 2017, aawu.arh.noaa.gov will be discontinued. The new AAWU web address is weather.gov/aawu. It is now live and will run in-parallel with the old site until it is discontinued. Please send any feedback or questions regarding the new webpages to nws.ar.aawu.webauthors@noaa.gov.  Thank you for your patience during this time of transition.
AAWU Home :: Display TAF Add Bookmark
SPECI PASM 271135Z AUTO 16006KT 10SM UP SCT006 SCT015 OVC021 02/02 A2988
     RMK AO2 UPE17B34RAB17E34 P0000 FZRANO=

METAR PASM 271156Z AUTO 17007KT 10SM UP SCT006 BKN016 OVC022 02/02 A2988
     RMK AO2 UPE17B34RAB17E34 SLP137 P0000 60001 70002 T00220017
     10039 20022 52003 FZRANO=

SPECI PASM 271249Z AUTO 16011KT 10SM UP BKN007 BKN024 OVC046 02/02 A2988
     RMK AO2 UPE26B49 P0000 FZRANO=

METAR PASM 271256Z AUTO 15005KT 10SM UP BKN007 OVC046 02/02 A2989 RMK
     AO2 UPE26B49 SLP138 P0000 T00220017 FZRANO=

SPECI PASM 271336Z AUTO 14005KT 10SM UP SCT007 BKN016 01/01 A2989
 RMK AO2 P0000 FZRANO=

METAR PASM 271356Z AUTO 14005KT 10SM UP BKN013 OVC018 02/01 A2989 RMK
     AO2 SLP139 P0000 T00170011 FZRANO=

PASM 271417Z AUTO 13006KT 10SM -RA FEW009 OVC015 02/01 A2989 RMK
     AO2 UPE17RAB17 P0000 FZRANO=

SPECI PASM 271434Z AUTO VRB05KT 10SM -RA BKN009 OVC015 02/01 A2989 RMK
     AO2 UPE17RAB17 CIG 006V012 P0000 FZRANO=

METAR PASM 271456Z AUTO 15006KT 10SM SCT007 SCT018 OVC025 02/01
 A2989 RMK AO2 UPE17B53E56RAB17E53 SLP140 P0000 60000 T00170011
 51003 FZRANO=

SPECI PASM 271526Z AUTO 14007KT 10SM FEW025 OVC041 02/01 A2989 RMK AO2
     FZRANO=

METAR PASM 271556Z AUTO 14007KT 10SM UP SCT026 OVC039 02/01 A2990 RMK
     AO2 UPB42 SLP142 P0000 T00220011 FZRANO=

SPECI PASM 271606Z AUTO 15010KT 10SM UP BKN028 OVC039 02/01 A2990 RMK
     AO2 P0000 FZRANO=

SPECI PASM 271617Z AUTO 14006KT 10SM UP SCT028 OVC043 02/01 A2990 RMK
     AO2 P0000 FZRANO=

SPECI PASM 271634Z AUTO 13008KT 10SM UP FEW010 BKN019 OVC043 02/01 A2990
     RMK AO2 P0000 FZRANO=

METAR PASM 271656Z AUTO 13008KT 10SM -RA FEW010 BKN019 OVC025 02/01
     A2990 RMK AO2 UPE36RAB48 SLP143 P0000 T00220006 FZRANO=


NOAA's National Weather Service
Alaska Aviation Weather Unit
6930 Sand Lake Road
Anchorage, AK 99502-1845
Disclaimer
Credits
Glossary
Privacy Policy
About Us
Career Opportunities
Contact AAWU Internet Services Site last modified: April, 17th 2012